sensor_id;sensor_type;location;lat;lon;timestamp;pressure;altitude;pressure_sealevel;temperature;humidity
27623;BME280;15041;45.334;5.622;2023-11-21T00:00:14;99047.06;;;11.84;100.00
27623;BME280;15041;45.334;5.622;2023-11-21T00:02:42;99029.75;;;11.90;99.76
27623;BME280;15041;45.334;5.622;2023-11-21T00:05:11;99031.94;;;11.88;98.21
27623;BME280;15041;45.334;5.622;2023-11-21T00:07:40;99030.56;;;11.90;98.32
27623;BME280;15041;45.334;5.622;2023-11-21T00:10:10;99025.41;;;11.94;97.33
27623;BME280;15041;45.334;5.622;2023-11-21T00:12:37;99028.91;;;11.99;97.33
27623;BME280;15041;45.334;5.622;2023-11-21T00:15:08;99025.94;;;12.01;96.11
27623;BME280;15041;45.334;5.622;2023-11-21T00:17:38;99028.66;;;12.01;93.87
27623;BME280;15041;45.334;5.622;2023-11-21T00:20:06;99014.06;;;11.97;92.75
27623;BME280;15041;45.334;5.622;2023-11-21T00:22:33;99014.31;;;12.00;92.76
27623;BME280;15041;45.334;5.622;2023-11-21T00:25:01;99014.59;;;12.04;90.26
27623;BME280;15041;45.334;5.622;2023-11-21T00:27:30;99021.63;;;12.00;90.78
27623;BME280;15041;45.334;5.622;2023-11-21T00:29:58;99015.69;;;11.88;90.56
27623;BME280;15041;45.334;5.622;2023-11-21T00:32:25;99008.09;;;11.90;89.25
27623;BME280;15041;45.334;5.622;2023-11-21T00:34:52;99006.22;;;11.95;88.30
27623;BME280;15041;45.334;5.622;2023-11-21T00:37:21;98999.44;;;11.98;88.20
27623;BME280;15041;45.334;5.622;2023-11-21T00:39:49;99002.16;;;11.93;88.78
27623;BME280;15041;45.334;5.622;2023-11-21T00:42:16;98999.44;;;11.98;88.26
27623;BME280;15041;45.334;5.622;2023-11-21T00:44:46;99002.69;;;11.90;86.76
27623;BME280;15041;45.334;5.622;2023-11-21T00:47:13;99010.31;;;11.83;86.43
27623;BME280;15041;45.334;5.622;2023-11-21T00:49:40;99009.22;;;11.84;85.94
27623;BME280;15041;45.334;5.622;2023-11-21T00:52:08;99013.03;;;11.78;87.66
27623;BME280;15041;45.334;5.622;2023-11-21T00:54:35;99011.13;;;11.78;87.03
27623;BME280;15041;45.334;5.622;2023-11-21T00:57:03;99001.09;;;11.84;85.18
27623;BME280;15041;45.334;5.622;2023-11-21T00:59:30;98991.91;;;11.80;83.26
27623;BME280;15041;45.334;5.622;2023-11-21T01:01:59;99000.03;;;11.75;86.41
27623;BME280;15041;45.334;5.622;2023-11-21T01:04:27;98983.84;;;11.60;87.23
27623;BME280;15041;45.334;5.622;2023-11-21T01:06:54;98987.63;;;11.64;86.64
27623;BME280;15041;45.334;5.622;2023-11-21T01:09:21;98991.41;;;11.53;85.10
27623;BME280;15041;45.334;5.622;2023-11-21T01:11:49;98991.13;;;11.54;85.03
27623;BME280;15041;45.334;5.622;2023-11-21T01:14:17;98989.22;;;11.55;83.55
27623;BME280;15041;45.334;5.622;2023-11-21T01:16:44;98991.41;;;11.63;83.45
27623;BME280;15041;45.334;5.622;2023-11-21T01:19:13;98977.34;;;11.71;83.45
27623;BME280;15041;45.334;5.622;2023-11-21T01:21:40;98982.50;;;11.67;82.24
27623;BME280;15041;45.334;5.622;2023-11-21T01:24:08;98983.56;;;11.71;81.86
27623;BME280;15041;45.334;5.622;2023-11-21T01:26:36;98987.09;;;11.67;80.88
27623;BME280;15041;45.334;5.622;2023-11-21T01:29:03;98993.56;;;11.71;80.48
27623;BME280;15041;45.334;5.622;2023-11-21T01:31:30;98992.22;;;11.43;89.49
27623;BME280;15041;45.334;5.622;2023-11-21T01:34:04;98995.75;;;11.14;96.35
27623;BME280;15041;45.334;5.622;2023-11-21T01:36:33;98993.59;;;11.11;100.00
27623;BME280;15041;45.334;5.622;2023-11-21T01:39:01;98993.28;;;10.97;100.00
27623;BME280;15041;45.334;5.622;2023-11-21T01:41:30;98992.50;;;11.17;100.00
27623;BME280;15041;45.334;5.622;2023-11-21T01:43:57;98986.53;;;11.35;100.00
27623;BME280;15041;45.334;5.622;2023-11-21T01:46:24;98987.09;;;11.07;100.00
27623;BME280;15041;45.334;5.622;2023-11-21T01:48:52;98975.47;;;10.86;100.00
27623;BME280;15041;45.334;5.622;2023-11-21T01:51:21;98974.13;;;11.24;100.00
27623;BME280;15041;45.334;5.622;2023-11-21T01:53:49;98979.53;;;11.29;99.79
27623;BME280;15041;45.334;5.622;2023-11-21T01:56:17;98965.47;;;11.37;98.81
27623;BME280;15041;45.334;5.622;2023-11-21T01:58:44;98969.81;;;11.33;98.83
27623;BME280;15041;45.334;5.622;2023-11-21T02:01:12;98971.44;;;11.24;99.35
27623;BME280;15041;45.334;5.622;2023-11-21T02:03:40;98973.06;;;11.20;98.16
27623;BME280;15041;45.334;5.622;2023-11-21T02:06:07;98972.50;;;11.13;100.00
27623;BME280;15041;45.334;5.622;2023-11-21T02:08:35;98970.91;;;11.07;99.80
27623;BME280;15041;45.334;5.622;2023-11-21T02:11:05;98958.19;;;10.82;100.00
27623;BME280;15041;45.334;5.622;2023-11-21T02:13:33;98952.25;;;11.05;99.90
27623;BME280;15041;45.334;5.622;2023-11-21T02:16:02;98959.00;;;11.03;98.15
27623;BME280;15041;45.334;5.622;2023-11-21T02:18:31;98949.53;;;10.70;99.82
27623;BME280;15041;45.334;5.622;2023-11-21T02:20:58;98948.97;;;10.53;100.00
27623;BME280;15041;45.334;5.622;2023-11-21T02:23:30;98951.09;;;10.41;100.00
27623;BME280;15041;45.334;5.622;2023-11-21T02:25:57;98944.41;;;10.79;100.00
27623;BME280;15041;45.334;5.622;2023-11-21T02:28:25;98937.94;;;10.90;98.94
27623;BME280;15041;45.334;5.622;2023-11-21T02:30:52;98935.22;;;10.65;100.00
27623;BME280;15041;45.334;5.622;2023-11-21T02:33:21;98940.09;;;10.68;99.77
27623;BME280;15041;45.334;5.622;2023-11-21T02:35:48;98938.47;;;10.87;99.13
27623;BME280;15041;45.334;5.622;2023-11-21T02:38:19;98930.59;;;10.45;99.26
27623;BME280;15041;45.334;5.622;2023-11-21T02:40:48;98933.56;;;10.54;100.00
27623;BME280;15041;45.334;5.622;2023-11-21T02:43:16;98942.44;;;10.39;100.00
27623;BME280;15041;45.334;5.622;2023-11-21T02:45:43;98938.97;;;10.49;98.52
27623;BME280;15041;45.334;5.622;2023-11-21T02:48:10;98937.66;;;10.61;95.74
27623;BME280;15041;45.334;5.622;2023-11-21T02:50:37;98941.09;;;10.37;97.11
27623;BME280;15041;45.334;5.622;2023-11-21T02:53:04;98943.75;;;10.22;98.20
27623;BME280;15041;45.334;5.622;2023-11-21T02:55:32;98941.13;;;10.42;99.00
27623;BME280;15041;45.334;5.622;2023-11-21T02:58:03;98944.53;;;10.17;99.34
27623;BME280;15041;45.334;5.622;2023-11-21T03:00:30;98937.78;;;10.05;100.00
27623;BME280;15041;45.334;5.622;2023-11-21T03:02:59;98935.16;;;10.35;99.74
27623;BME280;15041;45.334;5.622;2023-11-21T03:05:26;98941.66;;;10.54;96.72
27623;BME280;15041;45.334;5.622;2023-11-21T03:07:54;98947.41;;;9.96;100.00
27623;BME280;15041;45.334;5.622;2023-11-21T03:10:22;98950.25;;;9.74;100.00
27623;BME280;15041;45.334;5.622;2023-11-21T03:12:49;98944.84;;;10.21;100.00
27623;BME280;15041;45.334;5.622;2023-11-21T03:15:18;98952.59;;;10.07;99.22
27623;BME280;15041;45.334;5.622;2023-11-21T03:17:45;98951.72;;;9.92;100.00
27623;BME280;15041;45.334;5.622;2023-11-21T03:20:14;98952.38;;;9.67;100.00
27623;BME280;15041;45.334;5.622;2023-11-21T03:22:42;98946.59;;;9.95;100.00
27623;BME280;15041;45.334;5.622;2023-11-21T03:25:10;98943.25;;;10.30;100.00
27623;BME280;15041;45.334;5.622;2023-11-21T03:27:37;98941.59;;;10.29;100.00
27623;BME280;15041;45.334;5.622;2023-11-21T03:30:08;98936.25;;;10.44;98.78
27623;BME280;15041;45.334;5.622;2023-11-21T03:32:38;98924.38;;;10.25;100.00
27623;BME280;15041;45.334;5.622;2023-11-21T03:35:06;98932.91;;;10.12;100.00
27623;BME280;15041;45.334;5.622;2023-11-21T03:37:33;98933.25;;;10.20;100.00
27623;BME280;15041;45.334;5.622;2023-11-21T03:40:01;98927.47;;;10.02;100.00
27623;BME280;15041;45.334;5.622;2023-11-21T03:42:30;98934.59;;;10.28;100.00
27623;BME280;15041;45.334;5.622;2023-11-21T03:44:57;98925.47;;;10.49;100.00
27623;BME280;15041;45.334;5.622;2023-11-21T03:47:25;98931.97;;;10.43;99.10
27623;BME280;15041;45.334;5.622;2023-11-21T03:49:54;98935.09;;;10.15;100.00
27623;BME280;15041;45.334;5.622;2023-11-21T03:52:21;98934.38;;;9.78;100.00
27623;BME280;15041;45.334;5.622;2023-11-21T03:54:48;98935.19;;;9.73;100.00
27623;BME280;15041;45.334;5.622;2023-11-21T03:57:15;98936.91;;;9.99;100.00
27623;BME280;15041;45.334;5.622;2023-11-21T03:59:43;98939.69;;;10.14;100.00
27623;BME280;15041;45.334;5.622;2023-11-21T04:02:10;98939.13;;;10.07;100.00
27623;BME280;15041;45.334;5.622;2023-11-21T04:04:37;98933.00;;;10.32;100.00
27623;BME280;15041;45.334;5.622;2023-11-21T04:07:07;98939.50;;;10.41;100.00
27623;BME280;15041;45.334;5.622;2023-11-21T04:09:34;98933.56;;;10.54;100.00
27623;BME280;15041;45.334;5.622;2023-11-21T04:12:02;98933.31;;;10.60;100.00
27623;BME280;15041;45.334;5.622;2023-11-21T04:14:29;98944.28;;;10.24;100.00
27623;BME280;15041;45.334;5.622;2023-11-21T04:16:56;98950.84;;;10.48;100.00
27623;BME280;15041;45.334;5.622;2023-11-21T04:19:23;98954.56;;;10.32;100.00
27623;BME280;15041;45.334;5.622;2023-11-21T04:21:50;98953.97;;;10.10;100.00
27623;BME280;15041;45.334;5.622;2023-11-21T04:24:19;98962.50;;;9.97;100.00
27623;BME280;15041;45.334;5.622;2023-11-21T04:26:46;98958.31;;;10.21;100.00
27623;BME280;15041;45.334;5.622;2023-11-21T04:29:13;98947.88;;;10.59;100.00
27623;BME280;15041;45.334;5.622;2023-11-21T04:31:40;98947.38;;;10.62;100.00
27623;BME280;15041;45.334;5.622;2023-11-21T04:34:08;98956.56;;;10.71;100.00
27623;BME280;15041;45.334;5.622;2023-11-21T04:36:35;98959.00;;;10.83;100.00
27623;BME280;15041;45.334;5.622;2023-11-21T04:39:03;98960.84;;;10.57;100.00
27623;BME280;15041;45.334;5.622;2023-11-21T04:41:31;98959.44;;;10.30;100.00
27623;BME280;15041;45.334;5.622;2023-11-21T04:43:58;98954.63;;;10.42;100.00
27623;BME280;15041;45.334;5.622;2023-11-21T04:46:26;98955.66;;;10.31;100.00
27623;BME280;15041;45.334;5.622;2023-11-21T04:48:53;98962.22;;;10.60;100.00
27623;BME280;15041;45.334;5.622;2023-11-21T04:51:20;98953.53;;;10.43;100.00
27623;BME280;15041;45.334;5.622;2023-11-21T04:53:47;98967.22;;;10.21;100.00
27623;BME280;15041;45.334;5.622;2023-11-21T04:56:15;98960.28;;;10.50;100.00
27623;BME280;15041;45.334;5.622;2023-11-21T04:58:45;98957.91;;;10.59;100.00
27623;BME280;15041;45.334;5.622;2023-11-21T05:01:12;98968.91;;;10.52;100.00
27623;BME280;15041;45.334;5.622;2023-11-21T05:03:40;98962.22;;;10.65;100.00
27623;BME280;15041;45.334;5.622;2023-11-21T05:06:09;98954.13;;;10.70;100.00
27623;BME280;15041;45.334;5.622;2023-11-21T05:08:36;98960.56;;;10.54;100.00
27623;BME280;15041;45.334;5.622;2023-11-21T05:11:04;98967.09;;;10.68;100.00
27623;BME280;15041;45.334;5.622;2023-11-21T05:13:33;98952.25;;;10.75;100.00
27623;BME280;15041;45.334;5.622;2023-11-21T05:16:03;98954.63;;;10.57;100.00
27623;BME280;15041;45.334;5.622;2023-11-21T05:18:32;98955.72;;;10.71;100.00
27623;BME280;15041;45.334;5.622;2023-11-21T05:21:00;98953.06;;;10.76;100.00
27623;BME280;15041;45.334;5.622;2023-11-21T05:23:27;98951.41;;;10.65;100.00
27623;BME280;15041;45.334;5.622;2023-11-21T05:25:54;98956.81;;;10.65;100.00
27623;BME280;15041;45.334;5.622;2023-11-21T05:28:22;98951.41;;;10.75;100.00
27623;BME280;15041;45.334;5.622;2023-11-21T05:30:49;98955.72;;;10.51;100.00
27623;BME280;15041;45.334;5.622;2023-11-21T05:33:18;98959.38;;;10.20;100.00
27623;BME280;15041;45.334;5.622;2023-11-21T05:35:45;98964.84;;;10.40;100.00
27623;BME280;15041;45.334;5.622;2023-11-21T05:38:14;98958.38;;;10.36;100.00
27623;BME280;15041;45.334;5.622;2023-11-21T05:40:41;98956.25;;;10.48;100.00
27623;BME280;15041;45.334;5.622;2023-11-21T05:43:09;98961.16;;;10.76;100.00
27623;BME280;15041;45.334;5.622;2023-11-21T05:45:37;98958.44;;;10.66;100.00
27623;BME280;15041;45.334;5.622;2023-11-21T05:48:05;98952.50;;;10.69;100.00
27623;BME280;15041;45.334;5.622;2023-11-21T05:50:33;98960.88;;;10.77;100.00
27623;BME280;15041;45.334;5.622;2023-11-21T05:53:00;98962.78;;;10.72;100.00
27623;BME280;15041;45.334;5.622;2023-11-21T05:55:28;98955.22;;;10.74;100.00
27623;BME280;15041;45.334;5.622;2023-11-21T05:57:55;98966.53;;;10.61;100.00
27623;BME280;15041;45.334;5.622;2023-11-21T06:00:22;98959.53;;;10.80;100.00
27623;BME280;15041;45.334;5.622;2023-11-21T06:02:51;98955.16;;;10.44;100.00
27623;BME280;15041;45.334;5.622;2023-11-21T06:05:21;98951.34;;;10.25;100.00
27623;BME280;15041;45.334;5.622;2023-11-21T06:07:50;98951.81;;;10.12;100.00
27623;BME280;15041;45.334;5.622;2023-11-21T06:10:19;98957.28;;;10.32;100.00
27623;BME280;15041;45.334;5.622;2023-11-21T06:12:47;98950.31;;;10.51;100.00
27623;BME280;15041;45.334;5.622;2023-11-21T06:15:14;98944.66;;;10.57;100.00
27623;BME280;15041;45.334;5.622;2023-11-21T06:17:42;98949.16;;;10.27;100.00
27623;BME280;15041;45.334;5.622;2023-11-21T06:20:10;98945.63;;;10.21;100.00
27623;BME280;15041;45.334;5.622;2023-11-21T06:22:41;98947.88;;;10.44;100.00
27623;BME280;15041;45.334;5.622;2023-11-21T06:25:10;98947.94;;;10.79;100.00
27623;BME280;15041;45.334;5.622;2023-11-21T06:27:41;98950.88;;;10.88;100.00
27623;BME280;15041;45.334;5.622;2023-11-21T06:30:11;98953.31;;;10.79;100.00
27623;BME280;15041;45.334;5.622;2023-11-21T06:32:39;98951.38;;;10.50;100.00
27623;BME280;15041;45.334;5.622;2023-11-21T06:35:07;98960.53;;;10.44;100.00
27623;BME280;15041;45.334;5.622;2023-11-21T06:37:36;98957.28;;;10.32;100.00
27623;BME280;15041;45.334;5.622;2023-11-21T06:40:04;98970.75;;;10.27;100.00
27623;BME280;15041;45.334;5.622;2023-11-21T06:42:33;98968.63;;;10.39;100.00
27623;BME280;15041;45.334;5.622;2023-11-21T06:45:00;98977.81;;;10.38;100.00
27623;BME280;15041;45.334;5.622;2023-11-21T06:47:30;98972.41;;;10.43;100.00
27623;BME280;15041;45.334;5.622;2023-11-21T06:49:57;98975.03;;;10.23;100.00
27623;BME280;15041;45.334;5.622;2023-11-21T06:52:24;98974.72;;;10.09;100.00
27623;BME280;15041;45.334;5.622;2023-11-21T06:54:51;98973.81;;;9.99;100.00
27623;BME280;15041;45.334;5.622;2023-11-21T06:57:18;98973.34;;;10.07;100.00
27623;BME280;15041;45.334;5.622;2023-11-21T06:59:47;98974.19;;;10.07;100.00
27623;BME280;15041;45.334;5.622;2023-11-21T07:02:14;98973.88;;;10.04;100.00
27623;BME280;15041;45.334;5.622;2023-11-21T07:04:44;98969.50;;;9.93;100.00
27623;BME280;15041;45.334;5.622;2023-11-21T07:07:12;98975.16;;;9.96;100.00
27623;BME280;15041;45.334;5.622;2023-11-21T07:09:39;98980.69;;;10.16;100.00
27623;BME280;15041;45.334;5.622;2023-11-21T07:12:07;98984.25;;;10.37;100.00
27623;BME280;15041;45.334;5.622;2023-11-21T07:14:34;98987.19;;;10.25;100.00
27623;BME280;15041;45.334;5.622;2023-11-21T07:17:03;98986.91;;;10.17;100.00
27623;BME280;15041;45.334;5.622;2023-11-21T07:19:30;98994.91;;;10.07;100.00
27623;BME280;15041;45.334;5.622;2023-11-21T07:21:57;98992.81;;;10.14;100.00
27623;BME280;15041;45.334;5.622;2023-11-21T07:24:24;98993.31;;;10.06;100.00
27623;BME280;15041;45.334;5.622;2023-11-21T07:26:52;98989.09;;;10.25;100.00
27623;BME280;15041;45.334;5.622;2023-11-21T07:29:23;98979.38;;;10.29;100.00
27623;BME280;15041;45.334;5.622;2023-11-21T07:31:51;98979.63;;;10.22;100.00
27623;BME280;15041;45.334;5.622;2023-11-21T07:34:20;98981.50;;;10.17;100.00
27623;BME280;15041;45.334;5.622;2023-11-21T07:36:47;98983.38;;;10.11;100.00
27623;BME280;15041;45.334;5.622;2023-11-21T07:39:14;98974.91;;;9.98;100.00
27623;BME280;15041;45.334;5.622;2023-11-21T07:41:42;98981.44;;;10.07;100.00
27623;BME280;15041;45.334;5.622;2023-11-21T07:44:15;98987.88;;;10.01;100.00
27623;BME280;15041;45.334;5.622;2023-11-21T07:46:43;98983.59;;;10.05;100.00
27623;BME280;15041;45.334;5.622;2023-11-21T07:49:10;98989.03;;;10.15;100.00
27623;BME280;15041;45.334;5.622;2023-11-21T07:51:38;98980.94;;;10.20;100.00
27623;BME280;15041;45.334;5.622;2023-11-21T07:54:06;98988.50;;;10.18;100.00
27623;BME280;15041;45.334;5.622;2023-11-21T07:56:33;98990.31;;;10.02;100.00
27623;BME280;15041;45.334;5.622;2023-11-21T07:59:00;98983.63;;;10.15;100.00
27623;BME280;15041;45.334;5.622;2023-11-21T08:01:27;98991.72;;;10.15;100.00
27623;BME280;15041;45.334;5.622;2023-11-21T08:03:55;98990.59;;;10.06;100.00
27623;BME280;15041;45.334;5.622;2023-11-21T08:06:27;98977.09;;;10.01;100.00
27623;BME280;15041;45.334;5.622;2023-11-21T08:08:56;98981.44;;;10.07;100.00
27623;BME280;15041;45.334;5.622;2023-11-21T08:11:23;98979.44;;;9.92;100.00
27623;BME280;15041;45.334;5.622;2023-11-21T08:13:52;98978.13;;;9.95;100.00
27623;BME280;15041;45.334;5.622;2023-11-21T08:16:19;98974.38;;;10.01;100.00
27623;BME280;15041;45.334;5.622;2023-11-21T08:18:46;98979.22;;;9.99;100.00
27623;BME280;15041;45.334;5.622;2023-11-21T08:21:14;98972.19;;;9.93;100.00
27623;BME280;15041;45.334;5.622;2023-11-21T08:23:41;98976.03;;;10.07;100.00
27623;BME280;15041;45.334;5.622;2023-11-21T08:26:09;98980.41;;;10.13;100.00
27623;BME280;15041;45.334;5.622;2023-11-21T08:28:36;98976.63;;;10.09;100.00
27623;BME280;15041;45.334;5.622;2023-11-21T08:31:04;98974.44;;;10.11;100.00
27623;BME280;15041;45.334;5.622;2023-11-21T08:33:31;98988.44;;;10.08;100.00
27623;BME280;15041;45.334;5.622;2023-11-21T08:35:58;98977.16;;;10.11;100.00
27623;BME280;15041;45.334;5.622;2023-11-21T08:38:27;98976.63;;;10.14;100.00
27623;BME280;15041;45.334;5.622;2023-11-21T08:40:54;98979.63;;;10.22;100.00
27623;BME280;15041;45.334;5.622;2023-11-21T08:43:23;98978.00;;;10.21;100.00
27623;BME280;15041;45.334;5.622;2023-11-21T08:45:51;98965.25;;;10.07;100.00
27623;BME280;15041;45.334;5.622;2023-11-21T08:48:18;98975.56;;;10.20;100.00
27623;BME280;15041;45.334;5.622;2023-11-21T08:50:45;98971.00;;;10.25;100.00
27623;BME280;15041;45.334;5.622;2023-11-21T08:53:12;98971.84;;;10.31;100.00
27623;BME280;15041;45.334;5.622;2023-11-21T08:55:39;98968.91;;;10.42;100.00
27623;BME280;15041;45.334;5.622;2023-11-21T08:58:06;98957.31;;;10.47;100.00
27623;BME280;15041;45.334;5.622;2023-11-21T09:00:35;98960.28;;;10.40;100.00
27623;BME280;15041;45.334;5.622;2023-11-21T09:03:03;98960.53;;;10.39;100.00
27623;BME280;15041;45.334;5.622;2023-11-21T09:05:37;98952.19;;;10.55;100.00
27623;BME280;15041;45.334;5.622;2023-11-21T09:08:05;98959.50;;;10.65;100.00
27623;BME280;15041;45.334;5.622;2023-11-21T09:10:33;98958.94;;;10.63;100.00
27623;BME280;15041;45.334;5.622;2023-11-21T09:13:02;98955.72;;;10.71;100.00
27623;BME280;15041;45.334;5.622;2023-11-21T09:15:29;98955.19;;;10.69;100.00
27623;BME280;15041;45.334;5.622;2023-11-21T09:17:59;98954.94;;;10.70;100.00
27623;BME280;15041;45.334;5.622;2023-11-21T09:20:27;98954.69;;;10.87;100.00
27623;BME280;15041;45.334;5.622;2023-11-21T09:22:54;98944.94;;;11.01;100.00
27623;BME280;15041;45.334;5.622;2023-11-21T09:25:22;98950.34;;;11.01;100.00
27623;BME280;15041;45.334;5.622;2023-11-21T09:27:49;98953.88;;;11.06;100.00
27623;BME280;15041;45.334;5.622;2023-11-21T09:30:17;98959.00;;;11.03;100.00
27623;BME280;15041;45.334;5.622;2023-11-21T09:32:45;98950.09;;;11.17;100.00
27623;BME280;15041;45.334;5.622;2023-11-21T09:35:15;98956.03;;;11.29;100.00
27623;BME280;15041;45.334;5.622;2023-11-21T09:37:43;98958.47;;;11.36;100.00
27623;BME280;15041;45.334;5.622;2023-11-21T09:40:12;98962.22;;;11.30;100.00
27623;BME280;15041;45.334;5.622;2023-11-21T09:42:48;98965.47;;;11.17;100.00
27623;BME280;15041;45.334;5.622;2023-11-21T09:45:21;98961.97;;;11.21;100.00
27623;BME280;15041;45.334;5.622;2023-11-21T09:47:52;98966.00;;;11.34;100.00
27623;BME280;15041;45.334;5.622;2023-11-21T09:50:24;98961.69;;;11.33;100.00
27623;BME280;15041;45.334;5.622;2023-11-21T09:52:58;98961.97;;;11.31;100.00
27623;BME280;15041;45.334;5.622;2023-11-21T09:55:34;98960.88;;;11.27;100.00
27623;BME280;15041;45.334;5.622;2023-11-21T09:58:03;98962.78;;;11.22;100.00
27623;BME280;15041;45.334;5.622;2023-11-21T10:00:33;98969.81;;;11.28;100.00
27623;BME280;15041;45.334;5.622;2023-11-21T10:03:00;98961.16;;;11.41;100.00
27623;BME280;15041;45.334;5.622;2023-11-21T10:05:31;98961.69;;;11.38;100.00
27623;BME280;15041;45.334;5.622;2023-11-21T10:08:00;98962.22;;;11.35;100.00
27623;BME280;15041;45.334;5.622;2023-11-21T10:10:27;98954.66;;;11.37;100.00
27623;BME280;15041;45.334;5.622;2023-11-21T10:12:58;98956.28;;;11.38;100.00
27623;BME280;15041;45.334;5.622;2023-11-21T10:15:29;98957.38;;;11.32;100.00
27623;BME280;15041;45.334;5.622;2023-11-21T10:18:02;98962.22;;;11.45;100.00
27623;BME280;15041;45.334;5.622;2023-11-21T10:20:33;98956.84;;;11.30;100.00
27623;BME280;15041;45.334;5.622;2023-11-21T10:23:03;98956.28;;;11.33;100.00
27623;BME280;15041;45.334;5.622;2023-11-21T10:25:33;98957.38;;;11.22;100.00
27623;BME280;15041;45.334;5.622;2023-11-21T10:28:03;98960.88;;;11.27;100.00
27623;BME280;15041;45.334;5.622;2023-11-21T10:30:33;98959.00;;;11.33;100.00
27623;BME280;15041;45.334;5.622;2023-11-21T10:33:03;98961.69;;;11.38;100.00
27623;BME280;15041;45.334;5.622;2023-11-21T10:35:45;98959.81;;;11.38;100.00
27623;BME280;15041;45.334;5.622;2023-11-21T10:38:16;98959.00;;;11.38;100.00
27623;BME280;15041;45.334;5.622;2023-11-21T10:40:44;98961.41;;;11.44;100.00
27623;BME280;15041;45.334;5.622;2023-11-21T10:43:13;98955.47;;;11.42;100.00
27623;BME280;15041;45.334;5.622;2023-11-21T10:45:42;98956.00;;;11.44;100.00
27623;BME280;15041;45.334;5.622;2023-11-21T10:48:10;98959.00;;;11.38;100.00
27623;BME280;15041;45.334;5.622;2023-11-21T10:50:37;98953.84;;;11.36;100.00
27623;BME280;15041;45.334;5.622;2023-11-21T10:53:06;98943.84;;;11.57;100.00
27623;BME280;15041;45.334;5.622;2023-11-21T10:55:34;98942.75;;;11.63;100.00
27623;BME280;15041;45.334;5.622;2023-11-21T10:58:02;98941.16;;;11.52;100.00
27623;BME280;15041;45.334;5.622;2023-11-21T11:00:31;98937.34;;;11.53;100.00
27623;BME280;15041;45.334;5.622;2023-11-21T11:02:59;98933.03;;;11.57;100.00
27623;BME280;15041;45.334;5.622;2023-11-21T11:05:27;98934.13;;;11.41;100.00
27623;BME280;15041;45.334;5.622;2023-11-21T11:07:58;98940.34;;;11.46;100.00
27623;BME280;15041;45.334;5.622;2023-11-21T11:10:30;98943.31;;;11.50;100.00
27623;BME280;15041;45.334;5.622;2023-11-21T11:12:58;98941.13;;;11.47;100.00
27623;BME280;15041;45.334;5.622;2023-11-21T11:15:27;98940.88;;;11.48;100.00
27623;BME280;15041;45.334;5.622;2023-11-21T11:17:54;98939.50;;;11.56;100.00
27623;BME280;15041;45.334;5.622;2023-11-21T11:20:25;98929.78;;;11.50;100.00
27623;BME280;15041;45.334;5.622;2023-11-21T11:23:09;98932.25;;;11.41;100.00
27623;BME280;15041;45.334;5.622;2023-11-21T11:25:49;98936.28;;;11.34;100.00
27623;BME280;15041;45.334;5.622;2023-11-21T11:28:22;98930.88;;;11.39;100.00
27623;BME280;15041;45.334;5.622;2023-11-21T11:31:03;98939.00;;;11.44;100.00
27623;BME280;15041;45.334;5.622;2023-11-21T11:33:36;98938.44;;;11.62;100.00
27623;BME280;15041;45.334;5.622;2023-11-21T11:36:08;98934.66;;;11.43;100.00
27623;BME280;15041;45.334;5.622;2023-11-21T11:38:38;98938.44;;;11.67;100.00
27623;BME280;15041;45.334;5.622;2023-11-21T11:41:07;98935.19;;;11.55;100.00
27623;BME280;15041;45.334;5.622;2023-11-21T11:43:34;98930.34;;;11.62;100.00
27623;BME280;15041;45.334;5.622;2023-11-21T11:46:10;98927.63;;;11.47;100.00
27623;BME280;15041;45.334;5.622;2023-11-21T11:48:39;98933.03;;;11.47;100.00
27623;BME280;15041;45.334;5.622;2023-11-21T11:51:10;98927.09;;;11.45;100.00
27623;BME280;15041;45.334;5.622;2023-11-21T11:53:40;98924.13;;;11.51;100.00
27623;BME280;15041;45.334;5.622;2023-11-21T11:56:27;98920.59;;;11.51;100.00
27623;BME280;15041;45.334;5.622;2023-11-21T11:58:57;98919.53;;;11.47;100.00
27623;BME280;15041;45.334;5.622;2023-11-21T12:01:27;98921.72;;;11.30;100.00
27623;BME280;15041;45.334;5.622;2023-11-21T12:04:24;98922.53;;;11.35;100.00
27623;BME280;15041;45.334;5.622;2023-11-21T12:06:59;98916.31;;;11.40;100.00
27623;BME280;15041;45.334;5.622;2023-11-21T12:09:29;98914.66;;;11.39;100.00
27623;BME280;15041;45.334;5.622;2023-11-21T12:11:58;98914.13;;;11.47;100.00
27623;BME280;15041;45.334;5.622;2023-11-21T12:14:25;98913.06;;;11.38;100.00
27623;BME280;15041;45.334;5.622;2023-11-21T12:16:53;98907.66;;;11.38;100.00
27623;BME280;15041;45.334;5.622;2023-11-21T12:19:20;98906.56;;;11.34;100.00
27623;BME280;15041;45.334;5.622;2023-11-21T12:21:49;98903.84;;;11.39;100.00
27623;BME280;15041;45.334;5.622;2023-11-21T12:24:16;98911.44;;;11.37;100.00
27623;BME280;15041;45.334;5.622;2023-11-21T12:26:44;98906.03;;;11.42;100.00
27623;BME280;15041;45.334;5.622;2023-11-21T12:29:14;98911.97;;;11.44;100.00
27623;BME280;15041;45.334;5.622;2023-11-21T12:31:42;98907.13;;;11.41;100.00
27623;BME280;15041;45.334;5.622;2023-11-21T12:34:10;98901.19;;;11.44;100.00
27623;BME280;15041;45.334;5.622;2023-11-21T12:36:37;98903.03;;;11.58;100.00
27623;BME280;15041;45.334;5.622;2023-11-21T12:39:05;98918.16;;;11.54;100.00
27623;BME280;15041;45.334;5.622;2023-11-21T12:41:35;98914.91;;;11.67;100.00
27623;BME280;15041;45.334;5.622;2023-11-21T12:44:02;98906.56;;;11.44;100.00
27623;BME280;15041;45.334;5.622;2023-11-21T12:46:30;98917.34;;;11.59;100.00
27623;BME280;15041;45.334;5.622;2023-11-21T12:49:00;98915.44;;;11.59;100.00
27623;BME280;15041;45.334;5.622;2023-11-21T12:51:27;98923.28;;;11.51;100.00
27623;BME280;15041;45.334;5.622;2023-11-21T12:53:55;98931.16;;;11.42;100.00
27623;BME280;15041;45.334;5.622;2023-11-21T12:56:24;98928.69;;;11.51;100.00
27623;BME280;15041;45.334;5.622;2023-11-21T12:58:54;98924.09;;;11.56;100.00